sensor_id;sensor_type;location;lat;lon;timestamp;temperature;humidity
20650;DHT22;10484;48.736;9.332;2023-02-21T00:01:33;6.30;1.00
20650;DHT22;10484;48.736;9.332;2023-02-21T00:04:17;6.20;1.00
20650;DHT22;10484;48.736;9.332;2023-02-21T00:07:01;6.20;1.00
20650;DHT22;10484;48.736;9.332;2023-02-21T00:09:45;6.10;1.00
20650;DHT22;10484;48.736;9.332;2023-02-21T00:12:29;6.10;1.00
20650;DHT22;10484;48.736;9.332;2023-02-21T00:15:14;6.10;1.00
20650;DHT22;10484;48.736;9.332;2023-02-21T00:17:58;6.10;1.00
20650;DHT22;10484;48.736;9.332;2023-02-21T00:20:42;6.00;1.00
20650;DHT22;10484;48.736;9.332;2023-02-21T00:23:26;6.00;1.00
20650;DHT22;10484;48.736;9.332;2023-02-21T00:26:10;5.90;1.00
20650;DHT22;10484;48.736;9.332;2023-02-21T00:28:54;5.90;1.00
20650;DHT22;10484;48.736;9.332;2023-02-21T00:31:38;5.90;1.00
20650;DHT22;10484;48.736;9.332;2023-02-21T00:34:22;5.90;1.00
20650;DHT22;10484;48.736;9.332;2023-02-21T00:37:06;5.90;1.00
20650;DHT22;10484;48.736;9.332;2023-02-21T00:39:50;5.80;1.00
20650;DHT22;10484;48.736;9.332;2023-02-21T00:42:35;5.80;1.00
20650;DHT22;10484;48.736;9.332;2023-02-21T00:45:18;5.80;1.00
20650;DHT22;10484;48.736;9.332;2023-02-21T00:48:03;5.70;1.00
20650;DHT22;10484;48.736;9.332;2023-02-21T00:50:47;5.60;1.00
20650;DHT22;10484;48.736;9.332;2023-02-21T00:53:31;5.50;1.00
20650;DHT22;10484;48.736;9.332;2023-02-21T00:56:15;5.50;1.00
20650;DHT22;10484;48.736;9.332;2023-02-21T00:58:59;5.40;1.00
20650;DHT22;10484;48.736;9.332;2023-02-21T01:01:43;5.40;1.00
20650;DHT22;10484;48.736;9.332;2023-02-21T01:04:27;5.30;1.00
20650;DHT22;10484;48.736;9.332;2023-02-21T01:07:11;5.30;1.00
20650;DHT22;10484;48.736;9.332;2023-02-21T01:09:55;5.30;1.00
20650;DHT22;10484;48.736;9.332;2023-02-21T01:12:39;5.20;1.00
20650;DHT22;10484;48.736;9.332;2023-02-21T01:15:23;5.20;1.00
20650;DHT22;10484;48.736;9.332;2023-02-21T01:18:07;5.20;1.00
20650;DHT22;10484;48.736;9.332;2023-02-21T01:20:51;5.20;1.00
20650;DHT22;10484;48.736;9.332;2023-02-21T01:23:35;5.20;1.00
20650;DHT22;10484;48.736;9.332;2023-02-21T01:26:19;5.10;1.00
20650;DHT22;10484;48.736;9.332;2023-02-21T01:29:03;5.00;1.00
20650;DHT22;10484;48.736;9.332;2023-02-21T01:31:49;5.00;1.00
20650;DHT22;10484;48.736;9.332;2023-02-21T01:34:33;4.90;1.00
20650;DHT22;10484;48.736;9.332;2023-02-21T01:37:17;4.90;1.00
20650;DHT22;10484;48.736;9.332;2023-02-21T01:40:02;4.80;1.00
20650;DHT22;10484;48.736;9.332;2023-02-21T01:42:46;4.80;1.00
20650;DHT22;10484;48.736;9.332;2023-02-21T01:45:50;4.80;1.00
20650;DHT22;10484;48.736;9.332;2023-02-21T01:48:35;4.80;1.00
20650;DHT22;10484;48.736;9.332;2023-02-21T01:51:23;4.70;1.00
20650;DHT22;10484;48.736;9.332;2023-02-21T01:54:09;4.70;1.00
20650;DHT22;10484;48.736;9.332;2023-02-21T01:56:54;4.70;1.00
20650;DHT22;10484;48.736;9.332;2023-02-21T01:59:39;4.60;1.00
20650;DHT22;10484;48.736;9.332;2023-02-21T02:05:16;4.60;1.00
20650;DHT22;10484;48.736;9.332;2023-02-21T02:08:01;4.50;1.00
20650;DHT22;10484;48.736;9.332;2023-02-21T02:10:48;4.50;1.00
20650;DHT22;10484;48.736;9.332;2023-02-21T02:16:52;4.40;1.00
20650;DHT22;10484;48.736;9.332;2023-02-21T02:20:02;4.40;1.00
20650;DHT22;10484;48.736;9.332;2023-02-21T02:23:25;4.50;1.00
20650;DHT22;10484;48.736;9.332;2023-02-21T02:34:38;4.20;1.00
20650;DHT22;10484;48.736;9.332;2023-02-21T02:37:15;4.10;1.00
20650;DHT22;10484;48.736;9.332;2023-02-21T02:39:47;4.10;1.00
20650;DHT22;10484;48.736;9.332;2023-02-21T02:47:39;4.00;1.00
20650;DHT22;10484;48.736;9.332;2023-02-21T02:50:07;4.00;1.00
20650;DHT22;10484;48.736;9.332;2023-02-21T02:52:35;3.90;1.00
20650;DHT22;10484;48.736;9.332;2023-02-21T02:55:25;3.90;1.00
20650;DHT22;10484;48.736;9.332;2023-02-21T02:57:54;3.90;1.00
20650;DHT22;10484;48.736;9.332;2023-02-21T03:00:21;3.90;1.00
20650;DHT22;10484;48.736;9.332;2023-02-21T03:06:24;3.90;1.00
20650;DHT22;10484;48.736;9.332;2023-02-21T03:11:30;4.00;1.00
20650;DHT22;10484;48.736;9.332;2023-02-21T03:14:14;3.90;1.00
20650;DHT22;10484;48.736;9.332;2023-02-21T03:16:47;3.80;1.00
20650;DHT22;10484;48.736;9.332;2023-02-21T03:19:39;3.80;1.00
20650;DHT22;10484;48.736;9.332;2023-02-21T03:22:09;3.80;1.00
20650;DHT22;10484;48.736;9.332;2023-02-21T03:24:36;3.80;1.00
20650;DHT22;10484;48.736;9.332;2023-02-21T03:27:05;3.80;1.00
20650;DHT22;10484;48.736;9.332;2023-02-21T03:29:33;3.70;1.00
20650;DHT22;10484;48.736;9.332;2023-02-21T03:32:23;3.70;1.00
20650;DHT22;10484;48.736;9.332;2023-02-21T03:34:49;3.60;1.00
20650;DHT22;10484;48.736;9.332;2023-02-21T03:37:53;3.60;1.00
20650;DHT22;10484;48.736;9.332;2023-02-21T03:40:39;3.60;1.00
20650;DHT22;10484;48.736;9.332;2023-02-21T03:43:29;3.50;1.00
20650;DHT22;10484;48.736;9.332;2023-02-21T03:46:21;3.50;1.00
20650;DHT22;10484;48.736;9.332;2023-02-21T03:49:11;3.50;1.00
20650;DHT22;10484;48.736;9.332;2023-02-21T03:52:03;3.50;1.00
20650;DHT22;10484;48.736;9.332;2023-02-21T03:54:53;3.40;1.00
20650;DHT22;10484;48.736;9.332;2023-02-21T04:19:56;3.20;1.00
20650;DHT22;10484;48.736;9.332;2023-02-21T04:22:21;3.20;1.00
20650;DHT22;10484;48.736;9.332;2023-02-21T04:24:47;3.20;1.00
20650;DHT22;10484;48.736;9.332;2023-02-21T04:27:13;3.20;1.00
20650;DHT22;10484;48.736;9.332;2023-02-21T04:29:39;3.20;1.00
20650;DHT22;10484;48.736;9.332;2023-02-21T04:32:05;3.10;1.00
20650;DHT22;10484;48.736;9.332;2023-02-21T04:34:30;3.10;1.00
20650;DHT22;10484;48.736;9.332;2023-02-21T04:36:56;3.10;1.00
20650;DHT22;10484;48.736;9.332;2023-02-21T04:39:22;3.10;1.00
20650;DHT22;10484;48.736;9.332;2023-02-21T04:41:47;3.00;1.00
20650;DHT22;10484;48.736;9.332;2023-02-21T04:44:13;3.00;1.00
20650;DHT22;10484;48.736;9.332;2023-02-21T04:46:39;3.00;1.00
20650;DHT22;10484;48.736;9.332;2023-02-21T04:49:04;3.00;1.00
20650;DHT22;10484;48.736;9.332;2023-02-21T04:51:30;2.90;1.00
20650;DHT22;10484;48.736;9.332;2023-02-21T04:53:56;2.90;1.00
20650;DHT22;10484;48.736;9.332;2023-02-21T04:56:23;2.90;1.00
20650;DHT22;10484;48.736;9.332;2023-02-21T04:58:49;2.90;1.00
20650;DHT22;10484;48.736;9.332;2023-02-21T05:01:16;2.90;1.00
20650;DHT22;10484;48.736;9.332;2023-02-21T05:03:43;2.90;1.00
20650;DHT22;10484;48.736;9.332;2023-02-21T05:06:08;2.90;1.00
20650;DHT22;10484;48.736;9.332;2023-02-21T05:08:37;2.90;1.00
20650;DHT22;10484;48.736;9.332;2023-02-21T05:11:03;2.90;1.00
20650;DHT22;10484;48.736;9.332;2023-02-21T05:13:28;2.90;1.00
20650;DHT22;10484;48.736;9.332;2023-02-21T05:15:54;2.90;1.00
20650;DHT22;10484;48.736;9.332;2023-02-21T05:18:19;2.80;1.00
20650;DHT22;10484;48.736;9.332;2023-02-21T05:20:52;2.80;1.00
20650;DHT22;10484;48.736;9.332;2023-02-21T05:23:18;2.70;1.00
20650;DHT22;10484;48.736;9.332;2023-02-21T05:26:03;2.70;1.00
20650;DHT22;10484;48.736;9.332;2023-02-21T05:28:29;2.70;1.00
20650;DHT22;10484;48.736;9.332;2023-02-21T05:30:54;2.70;1.00
20650;DHT22;10484;48.736;9.332;2023-02-21T05:33:20;2.70;1.00
20650;DHT22;10484;48.736;9.332;2023-02-21T05:35:46;2.70;1.00
20650;DHT22;10484;48.736;9.332;2023-02-21T05:38:13;2.70;1.00
20650;DHT22;10484;48.736;9.332;2023-02-21T05:40:39;2.70;1.00
20650;DHT22;10484;48.736;9.332;2023-02-21T05:43:05;2.70;1.00
20650;DHT22;10484;48.736;9.332;2023-02-21T05:45:30;2.60;1.00
20650;DHT22;10484;48.736;9.332;2023-02-21T05:47:56;2.60;1.00
20650;DHT22;10484;48.736;9.332;2023-02-21T05:50:25;2.60;1.00
20650;DHT22;10484;48.736;9.332;2023-02-21T05:52:51;2.60;1.00
20650;DHT22;10484;48.736;9.332;2023-02-21T05:55:17;2.60;1.00
20650;DHT22;10484;48.736;9.332;2023-02-21T05:57:43;2.60;1.00
20650;DHT22;10484;48.736;9.332;2023-02-21T06:00:20;2.60;1.00
20650;DHT22;10484;48.736;9.332;2023-02-21T06:02:51;2.50;1.00
20650;DHT22;10484;48.736;9.332;2023-02-21T06:05:18;2.50;1.00
20650;DHT22;10484;48.736;9.332;2023-02-21T06:07:44;2.50;1.00
20650;DHT22;10484;48.736;9.332;2023-02-21T06:10:10;2.50;1.00
20650;DHT22;10484;48.736;9.332;2023-02-21T06:12:35;2.40;1.00
20650;DHT22;10484;48.736;9.332;2023-02-21T06:15:01;2.40;1.00
20650;DHT22;10484;48.736;9.332;2023-02-21T06:17:38;2.40;1.00
20650;DHT22;10484;48.736;9.332;2023-02-21T06:20:05;2.40;1.00
20650;DHT22;10484;48.736;9.332;2023-02-21T06:22:31;2.40;1.00
20650;DHT22;10484;48.736;9.332;2023-02-21T06:24:56;2.40;1.00
20650;DHT22;10484;48.736;9.332;2023-02-21T06:27:22;2.30;1.00
20650;DHT22;10484;48.736;9.332;2023-02-21T06:29:48;2.30;1.00
20650;DHT22;10484;48.736;9.332;2023-02-21T06:32:14;2.30;1.00
20650;DHT22;10484;48.736;9.332;2023-02-21T06:34:39;2.30;1.00
20650;DHT22;10484;48.736;9.332;2023-02-21T06:37:05;2.30;1.00
20650;DHT22;10484;48.736;9.332;2023-02-21T06:39:31;2.30;1.00
20650;DHT22;10484;48.736;9.332;2023-02-21T06:41:57;2.30;1.00
20650;DHT22;10484;48.736;9.332;2023-02-21T06:44:22;2.30;1.00
20650;DHT22;10484;48.736;9.332;2023-02-21T06:46:48;2.30;1.00
20650;DHT22;10484;48.736;9.332;2023-02-21T06:49:19;2.20;1.00
20650;DHT22;10484;48.736;9.332;2023-02-21T06:51:46;2.20;1.00
20650;DHT22;10484;48.736;9.332;2023-02-21T06:54:12;2.20;1.00
20650;DHT22;10484;48.736;9.332;2023-02-21T06:56:38;2.20;1.00
20650;DHT22;10484;48.736;9.332;2023-02-21T06:59:03;2.20;1.00
20650;DHT22;10484;48.736;9.332;2023-02-21T07:01:30;2.20;1.00
20650;DHT22;10484;48.736;9.332;2023-02-21T07:03:56;2.10;1.00
20650;DHT22;10484;48.736;9.332;2023-02-21T07:06:22;2.10;1.00
20650;DHT22;10484;48.736;9.332;2023-02-21T07:08:48;2.10;1.00
20650;DHT22;10484;48.736;9.332;2023-02-21T07:11:15;2.10;1.00
20650;DHT22;10484;48.736;9.332;2023-02-21T07:13:40;2.10;1.00
20650;DHT22;10484;48.736;9.332;2023-02-21T07:16:06;2.10;1.00
20650;DHT22;10484;48.736;9.332;2023-02-21T07:18:32;2.10;1.00
20650;DHT22;10484;48.736;9.332;2023-02-21T07:20:58;2.20;1.00
20650;DHT22;10484;48.736;9.332;2023-02-21T07:23:24;2.20;1.00
20650;DHT22;10484;48.736;9.332;2023-02-21T07:25:50;2.20;1.00
20650;DHT22;10484;48.736;9.332;2023-02-21T07:28:16;2.20;1.00
20650;DHT22;10484;48.736;9.332;2023-02-21T07:30:42;2.20;1.00
20650;DHT22;10484;48.736;9.332;2023-02-21T07:33:07;2.20;1.00
20650;DHT22;10484;48.736;9.332;2023-02-21T07:35:33;2.30;1.00
20650;DHT22;10484;48.736;9.332;2023-02-21T07:37:59;2.30;1.00
20650;DHT22;10484;48.736;9.332;2023-02-21T07:40:24;2.40;1.00
20650;DHT22;10484;48.736;9.332;2023-02-21T07:42:50;2.40;1.00
20650;DHT22;10484;48.736;9.332;2023-02-21T07:45:16;2.50;1.00
20650;DHT22;10484;48.736;9.332;2023-02-21T07:47:43;2.50;1.00
20650;DHT22;10484;48.736;9.332;2023-02-21T07:50:10;2.60;1.00
20650;DHT22;10484;48.736;9.332;2023-02-21T07:52:35;2.70;1.00
20650;DHT22;10484;48.736;9.332;2023-02-21T07:55:01;2.80;1.00
20650;DHT22;10484;48.736;9.332;2023-02-21T07:57:27;3.00;1.00
20650;DHT22;10484;48.736;9.332;2023-02-21T07:59:52;3.10;1.00
20650;DHT22;10484;48.736;9.332;2023-02-21T08:02:18;3.30;1.00
20650;DHT22;10484;48.736;9.332;2023-02-21T08:04:44;3.40;1.00
20650;DHT22;10484;48.736;9.332;2023-02-21T08:07:09;3.60;1.00
20650;DHT22;10484;48.736;9.332;2023-02-21T08:09:35;3.70;1.00
20650;DHT22;10484;48.736;9.332;2023-02-21T08:12:03;3.80;1.00
20650;DHT22;10484;48.736;9.332;2023-02-21T08:14:28;4.00;1.00
20650;DHT22;10484;48.736;9.332;2023-02-21T08:16:54;4.10;1.00
20650;DHT22;10484;48.736;9.332;2023-02-21T08:19:20;4.20;1.00
20650;DHT22;10484;48.736;9.332;2023-02-21T08:21:47;4.40;1.00
20650;DHT22;10484;48.736;9.332;2023-02-21T08:24:13;4.50;1.00
20650;DHT22;10484;48.736;9.332;2023-02-21T08:26:39;4.60;1.00
20650;DHT22;10484;48.736;9.332;2023-02-21T08:29:07;4.70;1.00
20650;DHT22;10484;48.736;9.332;2023-02-21T08:31:40;4.80;1.00
20650;DHT22;10484;48.736;9.332;2023-02-21T08:34:09;4.90;1.00
20650;DHT22;10484;48.736;9.332;2023-02-21T08:36:37;5.00;1.00
20650;DHT22;10484;48.736;9.332;2023-02-21T08:39:04;5.00;1.00
20650;DHT22;10484;48.736;9.332;2023-02-21T08:41:38;5.20;1.00
20650;DHT22;10484;48.736;9.332;2023-02-21T08:44:05;5.30;1.00
20650;DHT22;10484;48.736;9.332;2023-02-21T08:46:31;5.40;1.00
20650;DHT22;10484;48.736;9.332;2023-02-21T08:48:57;5.50;1.00
20650;DHT22;10484;48.736;9.332;2023-02-21T08:51:31;5.60;1.00
20650;DHT22;10484;48.736;9.332;2023-02-21T08:53:57;5.70;1.00
20650;DHT22;10484;48.736;9.332;2023-02-21T08:56:23;5.80;1.00
20650;DHT22;10484;48.736;9.332;2023-02-21T08:58:49;5.80;1.00
20650;DHT22;10484;48.736;9.332;2023-02-21T09:01:15;5.90;1.00
20650;DHT22;10484;48.736;9.332;2023-02-21T09:03:41;6.00;1.00
20650;DHT22;10484;48.736;9.332;2023-02-21T09:06:06;6.00;1.00
20650;DHT22;10484;48.736;9.332;2023-02-21T09:08:33;6.10;1.00
20650;DHT22;10484;48.736;9.332;2023-02-21T09:11:00;6.20;1.00
20650;DHT22;10484;48.736;9.332;2023-02-21T09:13:27;6.30;1.00
20650;DHT22;10484;48.736;9.332;2023-02-21T09:15:53;6.40;1.00
20650;DHT22;10484;48.736;9.332;2023-02-21T09:18:19;6.40;1.00
20650;DHT22;10484;48.736;9.332;2023-02-21T09:20:45;6.50;1.00
20650;DHT22;10484;48.736;9.332;2023-02-21T09:23:18;6.60;1.00
20650;DHT22;10484;48.736;9.332;2023-02-21T09:25:45;6.60;1.00
20650;DHT22;10484;48.736;9.332;2023-02-21T09:28:11;6.70;1.00
20650;DHT22;10484;48.736;9.332;2023-02-21T09:30:37;6.80;1.00
20650;DHT22;10484;48.736;9.332;2023-02-21T09:33:02;6.90;1.00
20650;DHT22;10484;48.736;9.332;2023-02-21T09:35:28;7.00;1.00
20650;DHT22;10484;48.736;9.332;2023-02-21T09:37:55;7.10;1.00
20650;DHT22;10484;48.736;9.332;2023-02-21T09:43:05;7.30;1.00
20650;DHT22;10484;48.736;9.332;2023-02-21T09:45:35;7.40;1.00
20650;DHT22;10484;48.736;9.332;2023-02-21T09:48:08;7.50;1.00
20650;DHT22;10484;48.736;9.332;2023-02-21T09:50:57;7.60;1.00
20650;DHT22;10484;48.736;9.332;2023-02-21T09:53:36;7.70;1.00
20650;DHT22;10484;48.736;9.332;2023-02-21T09:56:07;7.80;1.00
20650;DHT22;10484;48.736;9.332;2023-02-21T09:58:38;7.90;1.00
20650;DHT22;10484;48.736;9.332;2023-02-21T10:01:12;8.00;1.00
20650;DHT22;10484;48.736;9.332;2023-02-21T10:03:47;8.10;1.00
20650;DHT22;10484;48.736;9.332;2023-02-21T10:06:42;8.20;1.00
20650;DHT22;10484;48.736;9.332;2023-02-21T10:09:24;8.30;1.00
20650;DHT22;10484;48.736;9.332;2023-02-21T10:12:14;8.40;1.00
20650;DHT22;10484;48.736;9.332;2023-02-21T10:17:38;8.70;1.00
20650;DHT22;10484;48.736;9.332;2023-02-21T10:20:13;8.80;1.00
20650;DHT22;10484;48.736;9.332;2023-02-21T10:22:42;8.90;1.00
20650;DHT22;10484;48.736;9.332;2023-02-21T10:27:49;9.00;1.00
20650;DHT22;10484;48.736;9.332;2023-02-21T10:30:31;9.10;1.00
20650;DHT22;10484;48.736;9.332;2023-02-21T10:32:57;9.30;1.00
20650;DHT22;10484;48.736;9.332;2023-02-21T10:35:22;9.40;1.00
20650;DHT22;10484;48.736;9.332;2023-02-21T10:37:55;9.50;1.00
20650;DHT22;10484;48.736;9.332;2023-02-21T10:43:20;9.70;1.00
20650;DHT22;10484;48.736;9.332;2023-02-21T10:45:52;9.80;1.00
20650;DHT22;10484;48.736;9.332;2023-02-21T10:48:24;9.90;1.00
20650;DHT22;10484;48.736;9.332;2023-02-21T10:53:42;10.00;1.00
20650;DHT22;10484;48.736;9.332;2023-02-21T10:56:24;10.10;1.00
20650;DHT22;10484;48.736;9.332;2023-02-21T10:59:01;10.20;1.00
20650;DHT22;10484;48.736;9.332;2023-02-21T11:01:42;10.40;1.00
20650;DHT22;10484;48.736;9.332;2023-02-21T11:04:30;10.40;1.00
20650;DHT22;10484;48.736;9.332;2023-02-21T11:07:09;10.50;1.00
20650;DHT22;10484;48.736;9.332;2023-02-21T11:09:46;10.60;1.00
20650;DHT22;10484;48.736;9.332;2023-02-21T11:14:41;10.90;1.00
20650;DHT22;10484;48.736;9.332;2023-02-21T11:17:19;11.00;1.00
20650;DHT22;10484;48.736;9.332;2023-02-21T11:19:51;11.10;1.00
20650;DHT22;10484;48.736;9.332;2023-02-21T11:27:43;11.40;1.00
20650;DHT22;10484;48.736;9.332;2023-02-21T11:30:20;11.60;1.00
20650;DHT22;10484;48.736;9.332;2023-02-21T11:32:52;11.70;1.00
20650;DHT22;10484;48.736;9.332;2023-02-21T11:38:05;11.90;1.00
20650;DHT22;10484;48.736;9.332;2023-02-21T11:40:46;12.10;1.00
20650;DHT22;10484;48.736;9.332;2023-02-21T11:43:20;12.20;1.00
20650;DHT22;10484;48.736;9.332;2023-02-21T11:46:08;12.30;1.00
20650;DHT22;10484;48.736;9.332;2023-02-21T11:48:54;12.40;1.00
20650;DHT22;10484;48.736;9.332;2023-02-21T11:51:42;12.50;1.00
20650;DHT22;10484;48.736;9.332;2023-02-21T11:54:10;12.60;1.00
20650;DHT22;10484;48.736;9.332;2023-02-21T11:56:53;12.80;1.00
20650;DHT22;10484;48.736;9.332;2023-02-21T11:59:48;12.90;1.00
20650;DHT22;10484;48.736;9.332;2023-02-21T12:08:17;13.30;1.00
20650;DHT22;10484;48.736;9.332;2023-02-21T12:16:27;13.60;1.00
20650;DHT22;10484;48.736;9.332;2023-02-21T12:19:23;13.70;1.00
20650;DHT22;10484;48.736;9.332;2023-02-21T12:25:07;13.90;1.00
20650;DHT22;10484;48.736;9.332;2023-02-21T12:27:47;14.10;1.00
20650;DHT22;10484;48.736;9.332;2023-02-21T12:30:26;14.20;1.00
20650;DHT22;10484;48.736;9.332;2023-02-21T12:33:21;14.20;1.00
20650;DHT22;10484;48.736;9.332;2023-02-21T12:36:12;14.30;1.00
20650;DHT22;10484;48.736;9.332;2023-02-21T12:38:49;14.40;1.00
20650;DHT22;10484;48.736;9.332;2023-02-21T12:41:42;14.50;1.00
20650;DHT22;10484;48.736;9.332;2023-02-21T12:44:18;14.60;1.00
20650;DHT22;10484;48.736;9.332;2023-02-21T12:55:18;15.00;1.00
20650;DHT22;10484;48.736;9.332;2023-02-21T12:58:37;15.10;1.00
20650;DHT22;10484;48.736;9.332;2023-02-21T13:00:44;15.30;1.00
20650;DHT22;10484;48.736;9.332;2023-02-21T13:06:35;15.40;1.00
20650;DHT22;10484;48.736;9.332;2023-02-21T13:12:04;15.60;1.00
20650;DHT22;10484;48.736;9.332;2023-02-21T13:17:02;15.80;1.00
20650;DHT22;10484;48.736;9.332;2023-02-21T13:19:44;15.90;1.00
20650;DHT22;10484;48.736;9.332;2023-02-21T13:28:24;16.20;1.00
20650;DHT22;10484;48.736;9.332;2023-02-21T13:30:57;16.30;1.00
20650;DHT22;10484;48.736;9.332;2023-02-21T13:33:34;16.40;1.00
20650;DHT22;10484;48.736;9.332;2023-02-21T13:41:54;16.70;1.00
20650;DHT22;10484;48.736;9.332;2023-02-21T13:44:32;16.80;1.00
20650;DHT22;10484;48.736;9.332;2023-02-21T13:47:09;16.80;1.00
20650;DHT22;10484;48.736;9.332;2023-02-21T13:49:53;16.80;1.00
20650;DHT22;10484;48.736;9.332;2023-02-21T13:57:50;17.00;1.00
20650;DHT22;10484;48.736;9.332;2023-02-21T14:05:22;17.20;1.00
20650;DHT22;10484;48.736;9.332;2023-02-21T14:08:02;17.40;1.00
20650;DHT22;10484;48.736;9.332;2023-02-21T14:10:57;17.40;1.00
20650;DHT22;10484;48.736;9.332;2023-02-21T14:13:53;17.40;1.00
20650;DHT22;10484;48.736;9.332;2023-02-21T14:16:29;17.40;1.00
20650;DHT22;10484;48.736;9.332;2023-02-21T14:21:46;17.60;1.00
20650;DHT22;10484;48.736;9.332;2023-02-21T14:24:19;17.70;1.00
20650;DHT22;10484;48.736;9.332;2023-02-21T14:29:41;17.80;1.00
20650;DHT22;10484;48.736;9.332;2023-02-21T14:37:36;18.00;1.00
20650;DHT22;10484;48.736;9.332;2023-02-21T14:40:22;18.00;1.00
20650;DHT22;10484;48.736;9.332;2023-02-21T14:43:13;18.00;1.00
20650;DHT22;10484;48.736;9.332;2023-02-21T14:49:41;18.10;1.00
20650;DHT22;10484;48.736;9.332;2023-02-21T14:52:23;18.20;1.00
20650;DHT22;10484;48.736;9.332;2023-02-21T14:55:21;18.20;1.00
20650;DHT22;10484;48.736;9.332;2023-02-21T15:03:23;18.20;1.00
20650;DHT22;10484;48.736;9.332;2023-02-21T15:08:26;18.20;1.00
20650;DHT22;10484;48.736;9.332;2023-02-21T15:10:57;18.30;1.00
20650;DHT22;10484;48.736;9.332;2023-02-21T15:13:27;18.20;1.00
20650;DHT22;10484;48.736;9.332;2023-02-21T15:19:14;18.20;1.00
20650;DHT22;10484;48.736;9.332;2023-02-21T15:23:41;18.20;1.00
20650;DHT22;10484;48.736;9.332;2023-02-21T15:28:43;18.10;1.00
20650;DHT22;10484;48.736;9.332;2023-02-21T15:31:10;18.10;1.00
20650;DHT22;10484;48.736;9.332;2023-02-21T15:33:39;18.00;1.00
20650;DHT22;10484;48.736;9.332;2023-02-21T15:36:08;18.00;1.00
20650;DHT22;10484;48.736;9.332;2023-02-21T15:38:42;17.90;1.00
20650;DHT22;10484;48.736;9.332;2023-02-21T15:43:58;17.40;1.00
20650;DHT22;10484;48.736;9.332;2023-02-21T15:49:45;17.00;1.00
20650;DHT22;10484;48.736;9.332;2023-02-21T15:52:43;16.80;1.00
20650;DHT22;10484;48.736;9.332;2023-02-21T15:57:45;16.70;1.00
20650;DHT22;10484;48.736;9.332;2023-02-21T16:00:18;16.70;1.00
20650;DHT22;10484;48.736;9.332;2023-02-21T16:02:44;16.70;1.00
20650;DHT22;10484;48.736;9.332;2023-02-21T16:07:49;16.90;1.00
20650;DHT22;10484;48.736;9.332;2023-02-21T16:10:20;16.90;1.00
20650;DHT22;10484;48.736;9.332;2023-02-21T16:12:54;16.90;1.00
20650;DHT22;10484;48.736;9.332;2023-02-21T16:15:27;17.00;1.00
20650;DHT22;10484;48.736;9.332;2023-02-21T16:17:59;17.00;1.00
20650;DHT22;10484;48.736;9.332;2023-02-21T16:20:35;17.10;1.00
20650;DHT22;10484;48.736;9.332;2023-02-21T16:28:40;17.00;1.00
20650;DHT22;10484;48.736;9.332;2023-02-21T16:31:29;16.80;1.00
20650;DHT22;10484;48.736;9.332;2023-02-21T16:33:53;16.60;1.00
20650;DHT22;10484;48.736;9.332;2023-02-21T16:36:27;16.30;1.00
20650;DHT22;10484;48.736;9.332;2023-02-21T16:38:54;16.30;1.00
20650;DHT22;10484;48.736;9.332;2023-02-21T16:41:20;16.40;1.00
20650;DHT22;10484;48.736;9.332;2023-02-21T16:43:46;16.30;1.00
20650;DHT22;10484;48.736;9.332;2023-02-21T16:46:12;16.30;1.00
20650;DHT22;10484;48.736;9.332;2023-02-21T16:48:38;16.30;1.00
20650;DHT22;10484;48.736;9.332;2023-02-21T16:51:08;16.20;1.00
20650;DHT22;10484;48.736;9.332;2023-02-21T16:53:35;16.20;1.00
20650;DHT22;10484;48.736;9.332;2023-02-21T16:56:01;16.10;1.00
20650;DHT22;10484;48.736;9.332;2023-02-21T16:58:34;16.10;1.00
20650;DHT22;10484;48.736;9.332;2023-02-21T17:01:04;16.00;1.00
20650;DHT22;10484;48.736;9.332;2023-02-21T17:03:30;15.90;1.00
20650;DHT22;10484;48.736;9.332;2023-02-21T17:05:57;15.80;1.00
20650;DHT22;10484;48.736;9.332;2023-02-21T17:08:24;15.70;1.00
20650;DHT22;10484;48.736;9.332;2023-02-21T17:10:51;15.70;1.00
20650;DHT22;10484;48.736;9.332;2023-02-21T17:13:17;15.60;1.00
20650;DHT22;10484;48.736;9.332;2023-02-21T17:15:42;15.50;1.00
20650;DHT22;10484;48.736;9.332;2023-02-21T17:18:08;15.50;1.00
20650;DHT22;10484;48.736;9.332;2023-02-21T17:20:34;15.40;1.00
20650;DHT22;10484;48.736;9.332;2023-02-21T17:22:59;15.30;1.00
20650;DHT22;10484;48.736;9.332;2023-02-21T17:25:26;15.20;1.00
20650;DHT22;10484;48.736;9.332;2023-02-21T17:27:53;15.10;1.00
20650;DHT22;10484;48.736;9.332;2023-02-21T17:30:20;15.00;1.00
20650;DHT22;10484;48.736;9.332;2023-02-21T17:32:47;15.00;1.00
20650;DHT22;10484;48.736;9.332;2023-02-21T17:35:14;14.90;1.00
20650;DHT22;10484;48.736;9.332;2023-02-21T17:37:41;14.80;1.00
20650;DHT22;10484;48.736;9.332;2023-02-21T17:40:08;14.70;1.00
20650;DHT22;10484;48.736;9.332;2023-02-21T17:42:34;14.70;1.00
20650;DHT22;10484;48.736;9.332;2023-02-21T17:44:59;14.60;1.00
20650;DHT22;10484;48.736;9.332;2023-02-21T17:47:27;14.50;1.00
20650;DHT22;10484;48.736;9.332;2023-02-21T17:49:53;14.40;1.00
20650;DHT22;10484;48.736;9.332;2023-02-21T17:52:23;14.40;1.00
20650;DHT22;10484;48.736;9.332;2023-02-21T17:54:48;14.30;1.00
20650;DHT22;10484;48.736;9.332;2023-02-21T17:57:14;14.20;1.00
20650;DHT22;10484;48.736;9.332;2023-02-21T17:59:40;14.10;1.00
20650;DHT22;10484;48.736;9.332;2023-02-21T18:02:06;14.00;1.00
20650;DHT22;10484;48.736;9.332;2023-02-21T18:04:34;14.00;1.00
20650;DHT22;10484;48.736;9.332;2023-02-21T18:07:00;13.90;1.00
20650;DHT22;10484;48.736;9.332;2023-02-21T18:09:28;13.90;1.00
20650;DHT22;10484;48.736;9.332;2023-02-21T18:11:55;13.80;1.00
20650;DHT22;10484;48.736;9.332;2023-02-21T18:14:22;13.70;1.00
20650;DHT22;10484;48.736;9.332;2023-02-21T18:16:47;13.60;1.00
20650;DHT22;10484;48.736;9.332;2023-02-21T18:19:14;13.50;1.00
20650;DHT22;10484;48.736;9.332;2023-02-21T18:21:40;13.50;1.00
20650;DHT22;10484;48.736;9.332;2023-02-21T18:24:10;13.40;1.00
20650;DHT22;10484;48.736;9.332;2023-02-21T18:26:37;13.40;1.00
20650;DHT22;10484;48.736;9.332;2023-02-21T18:29:04;13.30;1.00
20650;DHT22;10484;48.736;9.332;2023-02-21T18:31:30;13.20;1.00
20650;DHT22;10484;48.736;9.332;2023-02-21T18:33:56;13.20;1.00
20650;DHT22;10484;48.736;9.332;2023-02-21T18:36:22;13.10;1.00
20650;DHT22;10484;48.736;9.332;2023-02-21T18:38:48;13.10;1.00
20650;DHT22;10484;48.736;9.332;2023-02-21T18:41:17;13.00;1.00
20650;DHT22;10484;48.736;9.332;2023-02-21T18:43:45;13.00;1.00
20650;DHT22;10484;48.736;9.332;2023-02-21T18:46:13;12.90;1.00
20650;DHT22;10484;48.736;9.332;2023-02-21T18:48:45;12.90;1.00
20650;DHT22;10484;48.736;9.332;2023-02-21T18:51:12;12.80;1.00
20650;DHT22;10484;48.736;9.332;2023-02-21T18:53:39;12.70;1.00
20650;DHT22;10484;48.736;9.332;2023-02-21T18:56:09;12.70;1.00
20650;DHT22;10484;48.736;9.332;2023-02-21T18:58:36;12.60;1.00
20650;DHT22;10484;48.736;9.332;2023-02-21T19:01:03;12.60;1.00
20650;DHT22;10484;48.736;9.332;2023-02-21T19:03:29;12.50;1.00
20650;DHT22;10484;48.736;9.332;2023-02-21T19:05:54;12.50;1.00
20650;DHT22;10484;48.736;9.332;2023-02-21T19:08:20;12.40;1.00
20650;DHT22;10484;48.736;9.332;2023-02-21T19:10:47;12.40;1.00
20650;DHT22;10484;48.736;9.332;2023-02-21T19:13:14;12.30;1.00
20650;DHT22;10484;48.736;9.332;2023-02-21T19:15:40;12.20;1.00
20650;DHT22;10484;48.736;9.332;2023-02-21T19:18:05;12.20;1.00
20650;DHT22;10484;48.736;9.332;2023-02-21T19:20:31;12.10;1.00
20650;DHT22;10484;48.736;9.332;2023-02-21T19:22:57;12.10;1.00
20650;DHT22;10484;48.736;9.332;2023-02-21T19:25:23;12.00;1.00